createdAt,value
2019-05-23T00:01:52.337Z,94.79
2019-05-23T00:02:52.309Z,94.31
2019-05-23T00:03:52.315Z,94.89
2019-05-23T00:04:52.277Z,95.08
2019-05-23T00:05:52.248Z,95.46
2019-05-23T00:06:52.227Z,95.46
2019-05-23T00:07:52.215Z,95.46
2019-05-23T00:08:52.189Z,95.17
2019-05-23T00:09:52.167Z,94.79
2019-05-23T00:10:52.148Z,95.17
2019-05-23T00:11:52.129Z,95.08
2019-05-23T00:12:52.104Z,95.36
2019-05-23T00:13:52.089Z,95.17
2019-05-23T00:14:52.066Z,95.27
2019-05-23T00:15:52.043Z,95.46
2019-05-23T00:17:25.232Z,96.03
2019-05-23T00:17:52.006Z,95.56
2019-05-23T00:18:51.982Z,95.94
2019-05-23T00:19:51.961Z,95.84
2019-05-23T00:20:51.955Z,95.94
2019-05-23T00:21:51.925Z,95.84
2019-05-23T00:22:51.900Z,95.65
2019-05-23T00:23:51.879Z,96.03
2019-05-23T00:24:51.871Z,96.42
2019-05-23T00:25:51.842Z,96.61
2019-05-23T00:26:51.821Z,97.47
2019-05-23T00:27:51.796Z,97.47
2019-05-23T00:29:07.543Z,98.32
2019-05-23T00:29:51.757Z,98.42
2019-05-23T00:30:51.740Z,99.08
2019-05-23T00:31:51.715Z,99.28
2019-05-23T00:32:51.695Z,99.66
2019-05-23T00:33:51.681Z,99.66
2019-05-23T00:34:51.662Z,99.66
2019-05-23T00:35:51.637Z,99.85
2019-05-23T00:36:51.761Z,99.80
2019-05-23T00:37:51.591Z,99.90
2019-05-23T00:38:51.574Z,99.99
2019-05-23T00:39:51.560Z,99.99
2019-05-23T00:40:51.529Z,99.99
2019-05-23T00:41:51.523Z,99.99
2019-05-23T00:42:51.504Z,99.99
2019-05-23T00:43:51.469Z,99.99
2019-05-23T00:44:51.447Z,99.99
2019-05-23T00:45:51.427Z,99.99
2019-05-23T00:46:51.409Z,99.99
2019-05-23T00:47:51.390Z,99.99
2019-05-23T00:48:51.372Z,99.99
2019-05-23T00:49:51.352Z,99.99
2019-05-23T00:50:51.323Z,99.99
2019-05-23T00:51:51.301Z,99.99
2019-05-23T00:52:51.282Z,99.99
2019-05-23T00:53:51.263Z,99.99
2019-05-23T00:54:51.245Z,99.99
2019-05-23T00:55:51.222Z,99.99
2019-05-23T00:56:51.197Z,99.99
2019-05-23T00:57:51.178Z,99.99
2019-05-23T00:58:51.163Z,99.99
2019-05-23T00:59:51.135Z,99.99
2019-05-23T01:00:51.439Z,99.99
2019-05-23T01:01:51.097Z,99.61
2019-05-23T01:02:51.075Z,99.99
2019-05-23T01:03:51.052Z,99.99
2019-05-23T01:04:51.033Z,99.99
2019-05-23T01:05:51.012Z,99.80
2019-05-23T01:06:50.996Z,99.13
2019-05-23T01:07:50.979Z,99.61
2019-05-23T01:08:50.950Z,99.90
2019-05-23T01:09:50.938Z,99.99
2019-05-23T01:10:50.910Z,99.99
2019-05-23T01:11:50.887Z,99.61
2019-05-23T01:12:50.920Z,99.90
2019-05-23T01:13:50.849Z,99.99
2019-05-23T01:14:50.855Z,99.99
2019-05-23T01:15:50.806Z,99.99
2019-05-23T01:16:50.788Z,99.99
2019-05-23T01:17:50.762Z,99.99
2019-05-23T01:18:50.796Z,99.99
2019-05-23T01:19:50.726Z,99.99
2019-05-23T01:20:50.700Z,99.99
2019-05-23T01:21:50.693Z,99.99
2019-05-23T01:22:50.663Z,99.99
2019-05-23T01:23:50.649Z,99.99
2019-05-23T01:24:50.615Z,99.99
2019-05-23T01:25:50.606Z,99.99
2019-05-23T01:26:50.578Z,99.99
2019-05-23T01:27:50.558Z,99.99
2019-05-23T01:28:50.532Z,99.99
2019-05-23T01:29:50.633Z,99.99
2019-05-23T01:30:50.493Z,99.99
2019-05-23T01:31:50.473Z,99.99
2019-05-23T01:32:50.448Z,99.99
2019-05-23T01:33:50.427Z,99.99
2019-05-23T01:34:50.409Z,99.99
2019-05-23T01:35:50.388Z,99.99
2019-05-23T01:36:50.367Z,99.99
2019-05-23T01:37:50.344Z,99.99
2019-05-23T01:38:50.323Z,99.99
2019-05-23T01:39:50.304Z,99.99
2019-05-23T01:40:50.281Z,99.99
2019-05-23T01:41:50.262Z,99.99
2019-05-23T01:42:50.252Z,99.99
2019-05-23T01:43:50.217Z,99.99
2019-05-23T01:44:50.206Z,99.99
2019-05-23T01:45:50.175Z,99.99
2019-05-23T01:46:50.156Z,99.99
2019-05-23T01:47:50.153Z,99.99
2019-05-23T01:48:50.118Z,99.99
2019-05-23T01:49:50.092Z,99.99
2019-05-23T01:50:50.070Z,99.99
2019-05-23T01:51:50.049Z,99.99
2019-05-23T01:52:50.029Z,99.99
2019-05-23T01:53:50.015Z,99.99
2019-05-23T01:54:50.003Z,99.99
2019-05-23T01:55:49.963Z,99.99
2019-05-23T01:56:49.956Z,99.99
2019-05-23T01:57:49.924Z,99.99
2019-05-23T01:58:49.901Z,99.99
2019-05-23T02:00:07.822Z,99.99
2019-05-23T02:00:49.870Z,99.99
2019-05-23T02:01:49.844Z,99.99
2019-05-23T02:02:49.817Z,99.99
2019-05-23T02:03:49.796Z,99.99
2019-05-23T02:04:49.829Z,99.99
2019-05-23T02:05:49.753Z,99.99
2019-05-23T02:06:49.751Z,99.99
2019-05-23T02:07:49.708Z,99.99
2019-05-23T02:08:49.693Z,99.99
2019-05-23T02:09:49.671Z,99.99
2019-05-23T02:10:49.647Z,99.99
2019-05-23T02:11:49.639Z,99.99
2019-05-23T02:12:49.603Z,99.99
2019-05-23T02:13:50.189Z,99.99
2019-05-23T02:14:49.564Z,99.99
2019-05-23T02:23:05.337Z,99.99
2019-05-23T02:24:05.308Z,99.99
2019-05-23T02:25:05.486Z,99.99
2019-05-23T02:26:05.679Z,99.99
2019-05-23T02:27:06.655Z,99.99
2019-05-23T02:29:04.459Z,99.99
2019-05-23T02:32:42.561Z,99.99
2019-05-23T02:33:42.532Z,99.99
2019-05-23T02:34:42.503Z,99.99
2019-05-23T02:35:42.481Z,99.99
2019-05-23T02:36:42.518Z,99.99
2019-05-23T02:37:42.436Z,99.99
2019-05-23T02:38:42.415Z,99.99
2019-05-23T02:39:42.394Z,99.99
2019-05-23T02:40:42.371Z,99.99
2019-05-23T02:41:42.349Z,99.99
2019-05-23T02:42:42.334Z,99.99
2019-05-23T02:43:42.305Z,99.99
2019-05-23T02:44:42.289Z,99.99
2019-05-23T02:45:42.270Z,99.99
2019-05-23T02:46:42.239Z,99.99
2019-05-23T02:47:42.232Z,99.99
2019-05-23T02:48:42.204Z,99.99
2019-05-23T02:49:42.173Z,99.99
2019-05-23T02:50:42.152Z,99.99
2019-05-23T02:51:42.130Z,99.99
2019-05-23T02:52:42.109Z,99.99
2019-05-23T02:53:42.095Z,99.99
2019-05-23T02:54:42.065Z,99.99
2019-05-23T02:55:42.048Z,99.99
2019-05-23T02:56:42.037Z,99.99
2019-05-23T02:57:41.997Z,99.99
2019-05-23T02:58:41.977Z,99.99
2019-05-23T02:59:41.976Z,99.99
2019-05-23T03:00:53.473Z,99.99
2019-05-23T03:01:41.914Z,99.99
2019-05-23T03:02:41.888Z,99.99
2019-05-23T03:03:41.869Z,99.99
2019-05-23T03:04:41.850Z,99.99
2019-05-23T03:05:41.829Z,99.99
2019-05-23T03:06:41.803Z,99.99
2019-05-23T03:07:41.785Z,99.99
2019-05-23T03:08:41.776Z,99.99
2019-05-23T03:09:41.737Z,99.99
2019-05-23T03:10:41.717Z,99.99
2019-05-23T03:11:41.693Z,99.99
2019-05-23T03:12:41.671Z,99.99
2019-05-23T03:13:41.775Z,99.99
2019-05-23T03:14:41.628Z,99.99
2019-05-23T03:15:41.604Z,99.99
2019-05-23T03:16:41.587Z,99.99
2019-05-23T03:17:41.564Z,99.99
2019-05-23T03:18:41.540Z,99.99
2019-05-23T03:19:41.526Z,99.99
2019-05-23T03:20:41.497Z,99.99
2019-05-23T03:21:41.483Z,99.99
2019-05-23T03:22:41.452Z,99.99
2019-05-23T03:23:41.432Z,99.99
2019-05-23T03:24:41.411Z,99.99
2019-05-23T03:25:41.409Z,99.99
2019-05-23T03:26:41.369Z,99.99
2019-05-23T03:27:41.346Z,99.99
2019-05-23T03:28:41.322Z,99.99
2019-05-23T03:29:41.299Z,99.99
2019-05-23T03:30:41.282Z,99.99
2019-05-23T03:31:41.257Z,99.99
2019-05-23T03:32:41.243Z,99.99
2019-05-23T03:33:41.218Z,99.99
2019-05-23T03:34:41.191Z,99.99
2019-05-23T03:35:41.175Z,99.99
2019-05-23T03:36:41.156Z,99.99
2019-05-23T03:37:41.130Z,99.99
2019-05-23T03:38:41.108Z,99.99
2019-05-23T03:39:41.086Z,99.99
2019-05-23T03:40:41.058Z,99.99
2019-05-23T03:41:41.046Z,99.99
2019-05-23T03:42:41.016Z,99.99
2019-05-23T03:43:40.995Z,99.99
2019-05-23T03:44:40.977Z,99.99
2019-05-23T03:45:40.949Z,99.99
2019-05-23T03:46:40.928Z,99.99
2019-05-23T03:47:40.904Z,99.99
2019-05-23T03:48:40.883Z,99.99
2019-05-23T03:49:40.863Z,99.99
2019-05-23T03:50:40.844Z,99.99
2019-05-23T03:51:40.817Z,99.99
2019-05-23T03:52:40.797Z,99.99
2019-05-23T03:53:40.791Z,99.99
2019-05-23T03:54:40.753Z,99.99
2019-05-23T03:55:40.729Z,99.99
2019-05-23T03:56:40.708Z,99.99
2019-05-23T03:57:40.702Z,99.99
2019-05-23T03:58:40.674Z,99.99
2019-05-23T03:59:40.655Z,99.99
2019-05-23T04:00:40.621Z,99.99
2019-05-23T04:01:47.814Z,99.99
2019-05-23T04:02:40.579Z,99.99
2019-05-23T04:03:40.779Z,99.99
2019-05-23T04:04:40.534Z,99.99
2019-05-23T04:05:40.510Z,99.99
2019-05-23T04:06:40.513Z,99.99
2019-05-23T04:07:40.475Z,99.99
2019-05-23T04:08:40.447Z,99.99
2019-05-23T04:09:40.426Z,99.99
2019-05-23T04:10:40.411Z,99.99
2019-05-23T04:11:40.383Z,99.99
2019-05-23T04:12:40.373Z,99.99
2019-05-23T04:13:40.339Z,99.99
2019-05-23T04:14:40.320Z,99.99
2019-05-23T04:15:40.294Z,99.99
2019-05-23T04:16:40.274Z,99.99
2019-05-23T04:17:40.249Z,99.99
2019-05-23T04:18:40.232Z,99.99
2019-05-23T04:19:40.205Z,99.99
2019-05-23T04:20:40.186Z,99.99
2019-05-23T04:21:40.170Z,99.99
2019-05-23T04:22:40.140Z,99.99
2019-05-23T04:23:40.136Z,99.99
2019-05-23T04:24:40.098Z,99.99
2019-05-23T04:25:40.076Z,99.99
2019-05-23T04:26:40.059Z,99.99
2019-05-23T04:27:40.059Z,99.99
2019-05-23T04:28:40.016Z,99.99
2019-05-23T04:29:39.989Z,99.99
2019-05-23T04:30:39.969Z,99.99
2019-05-23T04:31:39.959Z,99.99
2019-05-23T04:32:39.928Z,99.99
2019-05-23T04:33:39.912Z,99.99
2019-05-23T04:34:39.891Z,99.99
2019-05-23T04:35:39.865Z,99.99
2019-05-23T04:36:39.838Z,99.99
2019-05-23T04:37:39.817Z,99.99
2019-05-23T04:38:39.795Z,99.99
2019-05-23T04:39:39.778Z,99.99
2019-05-23T04:40:39.770Z,99.99
2019-05-23T04:41:39.733Z,99.99
2019-05-23T04:42:39.715Z,99.99
2019-05-23T04:43:39.689Z,99.99
2019-05-23T04:44:43.798Z,99.99
2019-05-23T04:45:39.648Z,99.99
2019-05-23T04:46:39.623Z,99.99
2019-05-23T04:47:39.603Z,99.99
2019-05-23T04:48:39.583Z,99.99
2019-05-23T04:49:39.559Z,99.99
2019-05-23T04:50:39.569Z,99.99
2019-05-23T04:51:39.597Z,99.99
2019-05-23T04:52:39.499Z,99.99
2019-05-23T04:53:39.474Z,99.99
2019-05-23T04:54:39.452Z,99.99
2019-05-23T04:55:39.469Z,99.99
2019-05-23T04:56:39.412Z,99.99
2019-05-23T04:57:39.390Z,99.99
2019-05-23T04:58:39.381Z,99.99
2019-05-23T04:59:39.351Z,99.99
2019-05-23T05:00:39.333Z,99.99
2019-05-23T05:01:39.303Z,99.99
2019-05-23T05:02:39.293Z,99.99
2019-05-23T05:03:39.263Z,99.99
2019-05-23T05:04:39.313Z,99.99
2019-05-23T05:05:39.291Z,99.99
2019-05-23T05:06:39.199Z,99.99
2019-05-23T05:07:39.175Z,99.99
2019-05-23T05:08:39.159Z,99.99
2019-05-23T05:09:39.166Z,99.99
2019-05-23T05:10:39.118Z,99.99
2019-05-23T05:12:22.660Z,99.99
2019-05-23T05:13:22.639Z,99.99
2019-05-23T05:14:22.666Z,99.99
2019-05-23T05:15:22.597Z,99.99
2019-05-23T05:16:22.573Z,99.99
2019-05-23T05:17:22.560Z,99.99
2019-05-23T05:18:22.530Z,99.99
2019-05-23T05:19:22.570Z,99.99
2019-05-23T05:20:22.582Z,99.99
2019-05-23T05:21:22.469Z,99.99
2019-05-23T05:22:22.452Z,99.99
2019-05-23T05:23:22.426Z,99.99
2019-05-23T05:24:22.405Z,99.99
2019-05-23T05:25:22.384Z,99.99
2019-05-23T05:26:22.367Z,99.99
2019-05-23T05:27:22.342Z,99.99
2019-05-23T05:28:22.322Z,99.99
2019-05-23T05:29:22.297Z,99.99
2019-05-23T05:30:22.278Z,99.99
2019-05-23T05:31:22.260Z,97.99
2019-05-23T05:32:22.243Z,92.73
2019-05-23T05:33:22.214Z,89.29
2019-05-23T05:34:22.194Z,87.23
2019-05-23T05:35:22.176Z,86.55
2019-05-23T05:36:22.160Z,84.68
2019-05-23T05:37:22.158Z,82.08
2019-05-23T05:38:22.125Z,80.11
2019-05-23T05:39:22.100Z,77.94
2019-05-23T05:40:22.081Z,76.54
2019-05-23T05:41:22.059Z,75.48
2019-05-23T05:42:22.051Z,74.87
2019-05-23T05:43:22.033Z,74.96
2019-05-23T05:44:22.336Z,73.85
2019-05-23T05:45:21.987Z,72.54
2019-05-23T05:46:21.979Z,71.48
2019-05-23T05:47:21.957Z,70.52
2019-05-23T05:48:21.951Z,70.94
2019-05-23T05:49:21.919Z,69.69
2019-05-23T05:50:21.917Z,70.23
2019-05-23T05:51:21.891Z,70.07
2019-05-23T05:53:21.423Z,70.87
2019-05-23T05:54:21.413Z,70.39
2019-05-23T05:55:54.605Z,71.22
2019-05-23T05:56:54.595Z,72.91
2019-05-23T05:57:21.373Z,74.22
2019-05-23T05:58:21.365Z,74.44
2019-05-23T05:59:21.356Z,73.43
2019-05-23T06:00:21.332Z,72.31
2019-05-23T06:01:33.452Z,71.25
2019-05-23T06:02:21.294Z,70.72
2019-05-23T06:03:21.280Z,70.33
2019-05-23T06:04:21.266Z,68.63
2019-05-23T06:05:21.255Z,68.35
2019-05-23T06:06:21.247Z,68.73
2019-05-23T06:07:21.235Z,67.51
2019-05-23T06:08:21.218Z,67.51
2019-05-23T06:09:21.214Z,67.86
2019-05-23T06:10:21.284Z,68.35
2019-05-23T06:11:21.183Z,68.51
2019-05-23T06:12:21.165Z,67.96
2019-05-23T06:13:21.165Z,68.70
2019-05-23T06:14:21.139Z,71.12
2019-05-23T06:15:21.129Z,72.08
2019-05-23T06:16:21.121Z,71.93
2019-05-23T06:17:23.950Z,70.43
2019-05-23T06:18:21.095Z,70.17
2019-05-23T06:19:21.080Z,68.83
2019-05-23T06:20:21.074Z,68.29
2019-05-23T06:21:21.063Z,67.07
2019-05-23T06:22:21.049Z,66.10
2019-05-23T06:23:21.036Z,65.43
2019-05-23T06:24:39.252Z,65.78
2019-05-23T06:25:21.018Z,67.03
2019-05-23T06:26:21.011Z,67.13
2019-05-23T06:27:20.994Z,67.13
2019-05-23T06:28:20.993Z,67.42
2019-05-23T06:29:20.993Z,67.80
2019-05-23T06:30:20.973Z,67.68
2019-05-23T06:31:20.994Z,67.38
2019-05-23T06:32:20.949Z,67.48
2019-05-23T06:33:23.912Z,67.00
2019-05-23T06:34:20.936Z,67.74
2019-05-23T06:35:20.919Z,69.53
2019-05-23T06:36:20.919Z,70.45
2019-05-23T06:37:20.905Z,71.51
2019-05-23T06:38:20.895Z,71.06
2019-05-23T06:39:20.886Z,71.16
2019-05-23T06:40:20.936Z,69.95
2019-05-23T06:41:20.881Z,69.37
2019-05-23T06:42:20.853Z,68.92
2019-05-23T06:43:20.858Z,69.08
2019-05-23T06:44:20.853Z,69.95
2019-05-23T06:45:20.826Z,70.04
2019-05-23T06:46:20.817Z,71.16
2019-05-23T06:47:20.808Z,70.81
2019-05-23T06:48:20.875Z,69.27
2019-05-23T06:49:20.798Z,69.75
2019-05-23T06:50:20.787Z,70.49
2019-05-23T06:51:21.785Z,69.98
2019-05-23T06:52:20.763Z,69.02
2019-05-23T06:53:20.768Z,68.35
2019-05-23T06:54:20.750Z,68.60
2019-05-23T06:55:20.747Z,70.04
2019-05-23T06:56:20.745Z,70.23
2019-05-23T06:57:20.732Z,71.83
2019-05-23T06:58:20.974Z,71.67
2019-05-23T06:59:20.740Z,71.10
2019-05-23T07:00:20.698Z,71.35
2019-05-23T07:01:20.690Z,71.93
2019-05-23T07:02:20.684Z,72.08
2019-05-23T07:03:20.675Z,71.45
2019-05-23T07:04:20.673Z,71.93
2019-05-23T07:05:20.654Z,71.06
2019-05-23T07:06:20.652Z,70.58
2019-05-23T07:07:20.636Z,70.43
2019-05-23T07:08:20.631Z,69.18
2019-05-23T07:09:20.693Z,69.95
2019-05-23T07:10:20.608Z,70.68
2019-05-23T07:11:20.597Z,71.51
2019-05-23T07:12:20.588Z,71.80
2019-05-23T07:13:20.585Z,72.14
2019-05-23T07:14:20.578Z,74.44
2019-05-23T07:15:20.560Z,73.72
2019-05-23T07:16:20.550Z,72.37
2019-05-23T07:17:20.561Z,72.02
2019-05-23T07:18:20.530Z,71.93
2019-05-23T07:19:20.536Z,71.73
2019-05-23T07:20:20.512Z,72.56
2019-05-23T07:21:20.496Z,72.56
2019-05-23T07:22:20.486Z,73.77
2019-05-23T07:23:20.525Z,74.93
2019-05-23T07:24:20.463Z,74.10
2019-05-23T07:25:20.461Z,74.01
2019-05-23T07:26:20.441Z,73.62
2019-05-23T07:27:20.486Z,73.33
2019-05-23T07:28:20.426Z,72.66
2019-05-23T07:29:20.411Z,71.98
2019-05-23T07:30:21.671Z,70.97
2019-05-23T07:31:20.403Z,70.20
2019-05-23T07:32:20.374Z,69.05
2019-05-23T07:33:20.363Z,69.43
2019-05-23T07:34:20.358Z,69.53
2019-05-23T07:35:20.338Z,69.53
2019-05-23T07:36:20.330Z,68.85
2019-05-23T07:37:20.334Z,69.27
2019-05-23T07:38:20.296Z,69.18
2019-05-23T07:39:20.284Z,69.27
2019-05-23T07:40:20.273Z,68.73
2019-05-23T07:41:20.259Z,68.60
2019-05-23T07:42:20.263Z,68.51
2019-05-23T07:43:20.233Z,68.54
2019-05-23T07:44:20.222Z,68.54
2019-05-23T07:45:20.215Z,66.91
2019-05-23T07:46:20.197Z,66.81
2019-05-23T07:47:20.181Z,67.00
2019-05-23T07:48:20.185Z,68.15
2019-05-23T07:49:20.158Z,67.93
2019-05-23T07:50:20.150Z,69.08
2019-05-23T07:51:20.130Z,69.72
2019-05-23T07:52:20.115Z,69.53
2019-05-23T07:53:20.103Z,70.29
2019-05-23T07:54:20.089Z,70.29
2019-05-23T07:55:20.129Z,70.97
2019-05-23T07:56:20.075Z,69.53
2019-05-23T07:57:20.114Z,70.20
2019-05-23T07:58:20.047Z,69.62
2019-05-23T07:59:20.032Z,70.39
2019-05-23T08:00:20.030Z,70.10
2019-05-23T08:01:20.066Z,70.43
2019-05-23T08:02:24.880Z,69.66
2019-05-23T08:03:19.981Z,68.98
2019-05-23T08:04:22.341Z,68.54
2019-05-23T08:05:20.015Z,67.77
2019-05-23T08:06:19.946Z,67.68
2019-05-23T08:07:19.947Z,67.48
2019-05-23T08:08:19.937Z,67.00
2019-05-23T08:09:19.910Z,67.54
2019-05-23T08:10:32.957Z,67.74
2019-05-23T08:11:19.883Z,68.47
2019-05-23T08:12:19.870Z,69.05
2019-05-23T08:13:19.862Z,68.57
2019-05-23T08:14:19.842Z,68.66
2019-05-23T08:15:19.890Z,69.14
2019-05-23T08:16:19.822Z,68.85
2019-05-23T08:17:19.817Z,68.85
2019-05-23T08:18:19.802Z,68.66
2019-05-23T08:19:19.941Z,67.64
2019-05-23T08:20:19.770Z,67.93
2019-05-23T08:21:19.760Z,67.10
2019-05-23T08:22:19.744Z,66.14
2019-05-23T08:23:19.724Z,65.56
2019-05-23T08:24:19.711Z,65.46
2019-05-23T08:25:19.701Z,64.69
2019-05-23T08:26:19.711Z,64.43
2019-05-23T08:27:19.679Z,64.43
2019-05-23T08:28:19.660Z,65.20
2019-05-23T08:29:25.991Z,65.20
2019-05-23T08:30:19.630Z,64.73
2019-05-23T08:31:19.623Z,65.20
2019-05-23T08:32:19.603Z,64.82
2019-05-23T08:33:19.595Z,64.47
2019-05-23T08:34:19.580Z,64.25
2019-05-23T08:35:19.567Z,64.08
2019-05-23T08:36:19.544Z,63.22
2019-05-23T08:37:19.532Z,63.18
2019-05-23T08:38:19.523Z,64.31
2019-05-23T08:39:19.561Z,64.60
2019-05-23T08:40:19.502Z,64.60
2019-05-23T08:41:19.482Z,64.05
2019-05-23T08:42:19.473Z,63.89
2019-05-23T08:43:19.521Z,63.12
2019-05-23T08:44:19.435Z,63.12
2019-05-23T08:45:19.430Z,63.22
2019-05-23T08:46:19.408Z,63.02
2019-05-23T08:47:19.396Z,63.89
2019-05-23T08:48:19.375Z,63.22
2019-05-23T08:49:19.370Z,63.02
2019-05-23T08:50:19.349Z,62.83
2019-05-23T08:51:19.345Z,61.39
2019-05-23T08:52:19.325Z,60.24
2019-05-23T08:53:19.308Z,60.14
2019-05-23T08:54:19.296Z,59.01
2019-05-23T08:55:19.287Z,58.72
2019-05-23T08:56:19.873Z,58.79
2019-05-23T08:57:19.256Z,59.17
2019-05-23T08:58:19.272Z,59.85
2019-05-23T08:59:19.232Z,59.56
2019-05-23T09:00:19.298Z,57.95
2019-05-23T09:01:19.201Z,59.30
2019-05-23T09:02:19.217Z,59.14
2019-05-23T09:03:19.193Z,58.08
2019-05-23T09:04:19.164Z,57.24
2019-05-23T09:05:19.146Z,57.43
2019-05-23T09:06:19.160Z,57.62
2019-05-23T09:07:19.125Z,57.62
2019-05-23T09:08:19.115Z,57.27
2019-05-23T09:09:29.244Z,56.27
2019-05-23T09:10:19.082Z,55.73
2019-05-23T09:11:19.117Z,56.01
2019-05-23T09:12:19.179Z,55.08
2019-05-23T09:13:19.038Z,55.46
2019-05-23T09:14:19.023Z,55.18
2019-05-23T09:15:19.027Z,55.46
2019-05-23T09:16:19.002Z,55.63
2019-05-23T09:17:18.991Z,55.31
2019-05-23T09:18:19.075Z,55.29
2019-05-23T09:19:18.965Z,55.35
2019-05-23T09:20:18.948Z,55.57
2019-05-23T09:21:18.931Z,54.35
2019-05-23T09:22:18.921Z,55.29
2019-05-23T09:23:18.908Z,55.29
2019-05-23T09:24:18.892Z,55.31
2019-05-23T09:25:18.894Z,55.22
2019-05-23T09:26:18.908Z,55.22
2019-05-23T09:27:18.857Z,54.54
2019-05-23T09:28:18.853Z,53.77
2019-05-23T09:29:19.464Z,54.16
2019-05-23T09:30:18.822Z,54.16
2019-05-23T09:31:18.814Z,54.22
2019-05-23T09:32:19.206Z,54.42
2019-05-23T09:33:18.820Z,54.16
2019-05-23T09:34:18.781Z,51.68
2019-05-23T09:35:21.290Z,51.00
2019-05-23T09:36:18.749Z,50.42
2019-05-23T09:37:22.373Z,50.32
2019-05-23T09:38:18.732Z,49.84
2019-05-23T09:39:18.780Z,49.48
2019-05-23T09:40:18.703Z,49.32
2019-05-23T09:41:18.697Z,48.88
2019-05-23T09:42:18.687Z,48.13
2019-05-23T09:43:18.682Z,47.24
2019-05-23T09:44:18.661Z,47.53
2019-05-23T09:45:18.652Z,47.65
2019-05-23T09:46:18.653Z,47.00
2019-05-23T09:47:18.631Z,46.25
2019-05-23T09:48:18.623Z,45.32
2019-05-23T09:49:18.621Z,43.48
2019-05-23T09:50:18.614Z,43.00
2019-05-23T09:51:18.593Z,42.34
2019-05-23T09:52:18.583Z,42.85
2019-05-23T09:53:18.583Z,42.85
2019-05-23T09:54:18.569Z,42.55
2019-05-23T09:55:18.567Z,41.68
2019-05-23T09:56:21.239Z,41.56
2019-05-23T09:57:18.558Z,41.56
2019-05-23T09:58:18.693Z,41.97
2019-05-23T09:59:18.938Z,41.58
2019-05-23T10:00:18.520Z,41.12
2019-05-23T10:01:18.648Z,41.00
2019-05-23T10:02:18.514Z,41.08
2019-05-23T10:03:18.710Z,41.76
2019-05-23T10:04:18.500Z,41.88
2019-05-23T10:05:18.755Z,42.36
2019-05-23T10:06:19.089Z,42.07
2019-05-23T10:07:18.487Z,42.05
2019-05-23T10:08:18.491Z,42.05
2019-05-23T10:09:18.461Z,41.16
2019-05-23T10:10:18.864Z,41.52
2019-05-23T10:11:18.464Z,42.57
2019-05-23T10:12:22.166Z,42.76
2019-05-23T10:13:18.458Z,42.76
2019-05-23T10:14:18.444Z,42.71
2019-05-23T10:15:18.443Z,41.86
2019-05-23T10:16:18.446Z,42.05
2019-05-23T10:17:18.456Z,41.86
2019-05-23T10:18:18.435Z,42.51
2019-05-23T10:19:18.439Z,42.90
2019-05-23T10:20:18.442Z,43.00
2019-05-23T10:21:18.434Z,42.78
2019-05-23T10:22:18.432Z,42.86
2019-05-23T10:23:18.477Z,42.96
2019-05-23T10:24:18.430Z,41.70
2019-05-23T10:25:18.440Z,41.19
2019-05-23T10:26:18.437Z,40.83
2019-05-23T10:27:18.469Z,40.53
2019-05-23T10:28:18.462Z,41.11
2019-05-23T10:29:18.516Z,42.10
2019-05-23T10:30:18.433Z,41.25
2019-05-23T10:31:18.460Z,40.77
2019-05-23T10:32:18.433Z,41.06
2019-05-23T10:33:18.440Z,41.86
2019-05-23T10:34:18.433Z,41.66
2019-05-23T10:35:18.435Z,41.74
2019-05-23T10:36:18.435Z,43.30
2019-05-23T10:37:18.442Z,45.11
2019-05-23T10:38:18.435Z,45.89
2019-05-23T10:39:18.440Z,46.25
2019-05-23T10:40:18.435Z,45.96
2019-05-23T10:41:18.447Z,46.25
2019-05-23T10:42:18.441Z,45.48
2019-05-23T10:43:18.431Z,45.96
2019-05-23T10:44:18.438Z,45.76
2019-05-23T10:45:18.433Z,44.34
2019-05-23T10:46:18.439Z,43.68
2019-05-23T10:47:18.434Z,42.93
2019-05-23T10:48:18.419Z,42.47
2019-05-23T10:49:18.423Z,41.89
2019-05-23T10:50:18.428Z,41.99
2019-05-23T10:51:18.415Z,42.08
2019-05-23T10:52:18.421Z,41.99
2019-05-23T10:53:18.442Z,41.79
2019-05-23T10:54:18.435Z,41.99
2019-05-23T10:55:18.413Z,41.55
2019-05-23T10:56:20.636Z,40.89
2019-05-23T10:57:18.417Z,39.65
2019-05-23T10:58:18.406Z,39.55
2019-05-23T10:59:18.411Z,39.28
2019-05-23T11:00:18.406Z,39.37
2019-05-23T11:01:18.412Z,39.47
2019-05-23T11:02:18.401Z,39.11
2019-05-23T11:03:18.402Z,39.36
2019-05-23T11:04:18.425Z,40.01
2019-05-23T11:05:18.407Z,39.80
2019-05-23T11:06:18.397Z,40.17
2019-05-23T11:07:18.400Z,40.67
2019-05-23T11:08:18.419Z,40.67
2019-05-23T11:09:18.400Z,40.17
2019-05-23T11:10:18.402Z,40.19
2019-05-23T11:11:18.409Z,40.40
2019-05-23T11:12:18.412Z,40.38
2019-05-23T11:13:18.423Z,40.09
2019-05-23T11:14:18.438Z,40.21
2019-05-23T11:15:18.460Z,40.23
2019-05-23T11:16:18.408Z,39.74
2019-05-23T11:17:18.400Z,40.40
2019-05-23T11:18:18.408Z,40.48
2019-05-23T11:19:18.411Z,40.48
2019-05-23T11:20:18.400Z,41.16
2019-05-23T11:21:18.407Z,40.89
2019-05-23T11:22:18.411Z,40.96
2019-05-23T11:23:18.405Z,40.75
2019-05-23T11:24:18.409Z,41.55
2019-05-23T11:25:18.432Z,40.59
2019-05-23T11:26:18.420Z,39.65
2019-05-23T11:27:18.409Z,39.45
2019-05-23T11:28:18.408Z,39.45
2019-05-23T11:29:18.445Z,39.45
2019-05-23T11:30:18.413Z,39.26
2019-05-23T11:31:18.409Z,38.50
2019-05-23T11:32:20.160Z,38.60
2019-05-23T11:33:18.406Z,38.79
2019-05-23T11:34:18.410Z,39.08
2019-05-23T11:35:18.409Z,38.42
2019-05-23T11:36:33.712Z,38.50
2019-05-23T11:37:18.456Z,39.43
2019-05-23T11:38:18.414Z,39.22
2019-05-23T11:39:18.403Z,39.43
2019-05-23T11:40:18.409Z,39.36
2019-05-23T11:41:18.427Z,38.96
2019-05-23T11:42:18.404Z,38.39
2019-05-23T11:43:18.401Z,38.58
2019-05-23T11:44:18.403Z,38.46
2019-05-23T11:45:18.408Z,38.64
2019-05-23T11:46:18.405Z,39.03
2019-05-23T11:47:18.397Z,39.03
2019-05-23T11:48:21.017Z,39.29
2019-05-23T11:49:18.402Z,40.34
2019-05-23T11:50:18.387Z,40.65
2019-05-23T11:51:18.386Z,40.17
2019-05-23T11:52:18.396Z,40.25
2019-05-23T11:53:18.400Z,40.25
2019-05-23T11:54:18.376Z,40.05
2019-05-23T11:55:18.380Z,40.46
2019-05-23T11:56:18.364Z,40.34
2019-05-23T11:57:18.418Z,40.52
2019-05-23T11:58:18.356Z,40.98
2019-05-23T11:59:18.350Z,41.54
2019-05-23T12:00:18.757Z,42.21
2019-05-23T12:01:21.280Z,42.04
2019-05-23T12:02:18.330Z,41.46
2019-05-23T12:03:18.347Z,41.35
2019-05-23T12:04:18.320Z,41.94
2019-05-23T12:05:18.314Z,42.14
2019-05-23T12:06:18.304Z,42.14
2019-05-23T12:07:18.295Z,42.04
2019-05-23T12:08:18.292Z,42.14
2019-05-23T12:09:18.282Z,42.04
2019-05-23T12:10:18.348Z,42.24
2019-05-23T12:11:18.263Z,42.25
2019-05-23T12:12:18.257Z,42.07
2019-05-23T12:13:18.246Z,41.94
2019-05-23T12:15:32.521Z,42.55
2019-05-23T12:16:32.558Z,41.75
2019-05-23T12:17:32.512Z,41.94
2019-05-23T12:18:32.601Z,41.97
2019-05-23T12:19:32.604Z,42.07
2019-05-23T12:20:32.489Z,42.28
2019-05-23T12:21:32.468Z,41.97
2019-05-23T12:22:32.481Z,41.67
2019-05-23T12:23:32.451Z,41.87
2019-05-23T12:24:35.351Z,42.25
2019-05-23T12:25:32.439Z,42.33
2019-05-23T12:26:32.435Z,42.24
2019-05-23T12:27:32.417Z,42.72
2019-05-23T12:28:32.404Z,42.74
2019-05-23T12:29:32.404Z,42.89
2019-05-23T12:30:32.383Z,42.79
2019-05-23T12:31:32.371Z,42.99
2019-05-23T12:32:32.363Z,43.28
2019-05-23T12:33:32.352Z,43.10
2019-05-23T12:34:32.341Z,42.93
2019-05-23T12:35:32.340Z,42.83
2019-05-23T12:36:32.333Z,42.72
2019-05-23T12:37:32.319Z,42.70
2019-05-23T12:38:32.302Z,42.60
2019-05-23T12:39:32.294Z,43.66
2019-05-23T12:40:32.285Z,43.66
2019-05-23T12:41:32.289Z,43.76
2019-05-23T12:42:32.263Z,43.47
2019-05-23T12:43:32.256Z,43.66
2019-05-23T12:44:32.244Z,43.95
2019-05-23T12:45:32.238Z,44.22
2019-05-23T12:46:32.223Z,45.01
2019-05-23T12:47:32.221Z,43.76
2019-05-23T12:48:32.203Z,43.88
2019-05-23T12:49:32.192Z,43.90
2019-05-23T12:50:32.185Z,43.68
2019-05-23T12:51:32.181Z,43.78
2019-05-23T12:52:32.162Z,42.91
2019-05-23T12:53:32.160Z,42.99
2019-05-23T12:54:34.764Z,43.47
2019-05-23T12:55:32.153Z,43.37
2019-05-23T12:56:32.123Z,43.47
2019-05-23T12:57:32.134Z,43.37
2019-05-23T12:58:32.100Z,42.82
2019-05-23T12:59:32.097Z,42.82
2019-05-23T13:00:32.111Z,41.94
2019-05-23T13:01:32.071Z,42.79
2019-05-23T13:02:32.083Z,42.70
2019-05-23T13:03:32.054Z,42.82
2019-05-23T13:04:32.045Z,42.74
2019-05-23T13:05:32.034Z,42.08
2019-05-23T13:06:32.015Z,41.79
2019-05-23T13:07:36.440Z,41.87